sensor_id;sensor_type;location;lat;lon;timestamp;pressure;altitude;pressure_sealevel;temperature
80246;BMP280;69558;39.208;-77.226;2023-08-17T00:00:22;99954.53;;;27.98
80246;BMP280;69558;39.208;-77.226;2023-08-17T00:02:48;99961.72;;;27.97
80246;BMP280;69558;39.208;-77.226;2023-08-17T00:05:14;99962.81;;;28.01
80246;BMP280;69558;39.208;-77.226;2023-08-17T00:07:40;99966.75;;;27.88
80246;BMP280;69558;39.208;-77.226;2023-08-17T00:10:06;99953.13;;;27.80
80246;BMP280;69558;39.208;-77.226;2023-08-17T00:12:32;99967.56;;;27.89
80246;BMP280;69558;39.208;-77.226;2023-08-17T00:14:58;99968.09;;;27.86
80246;BMP280;69558;39.208;-77.226;2023-08-17T00:17:24;99973.69;;;27.89
80246;BMP280;69558;39.208;-77.226;2023-08-17T00:19:50;99978.00;;;27.95
80246;BMP280;69558;39.208;-77.226;2023-08-17T00:22:16;99986.50;;;27.92
80246;BMP280;69558;39.208;-77.226;2023-08-17T00:24:42;99961.66;;;27.77
80246;BMP280;69558;39.208;-77.226;2023-08-17T00:27:10;99944.78;;;27.66
80246;BMP280;69558;39.208;-77.226;2023-08-17T00:29:37;99992.13;;;27.96
80246;BMP280;69558;39.208;-77.226;2023-08-17T00:32:03;99994.25;;;27.99
80246;BMP280;69558;39.208;-77.226;2023-08-17T00:34:29;99997.97;;;27.98
80246;BMP280;69558;39.208;-77.226;2023-08-17T00:36:55;100000.91;;;27.96
80246;BMP280;69558;39.208;-77.226;2023-08-17T00:39:21;100009.41;;;27.93
80246;BMP280;69558;39.208;-77.226;2023-08-17T00:41:47;100000.66;;;27.93
80246;BMP280;69558;39.208;-77.226;2023-08-17T00:44:13;99999.25;;;27.85
80246;BMP280;69558;39.208;-77.226;2023-08-17T00:46:40;99981.09;;;27.72
80246;BMP280;69558;39.208;-77.226;2023-08-17T00:49:06;100016.34;;;27.89
80246;BMP280;69558;39.208;-77.226;2023-08-17T00:51:33;100012.59;;;27.85
80246;BMP280;69558;39.208;-77.226;2023-08-17T00:54:03;100021.13;;;27.87
80246;BMP280;69558;39.208;-77.226;2023-08-17T00:56:29;100028.59;;;27.85
80246;BMP280;69558;39.208;-77.226;2023-08-17T00:58:56;100014.72;;;27.83
80246;BMP280;69558;39.208;-77.226;2023-08-17T01:01:22;100010.16;;;27.74
80246;BMP280;69558;39.208;-77.226;2023-08-17T01:03:48;100016.84;;;27.81
80246;BMP280;69558;39.208;-77.226;2023-08-17T01:06:14;100029.69;;;27.89
80246;BMP280;69558;39.208;-77.226;2023-08-17T01:08:41;100024.31;;;27.84
80246;BMP280;69558;39.208;-77.226;2023-08-17T01:11:51;100022.44;;;27.85
80246;BMP280;69558;39.208;-77.226;2023-08-17T01:14:31;100020.88;;;27.84
80246;BMP280;69558;39.208;-77.226;2023-08-17T01:17:11;100002.91;;;27.69
80246;BMP280;69558;39.208;-77.226;2023-08-17T01:19:38;100033.91;;;27.85
80246;BMP280;69558;39.208;-77.226;2023-08-17T01:22:05;100032.59;;;27.88
80246;BMP280;69558;39.208;-77.226;2023-08-17T01:24:31;100035.78;;;27.85
80246;BMP280;69558;39.208;-77.226;2023-08-17T01:26:57;100040.88;;;27.86
80246;BMP280;69558;39.208;-77.226;2023-08-17T01:29:23;100032.88;;;27.86
80246;BMP280;69558;39.208;-77.226;2023-08-17T01:34:29;100053.63;;;27.84
80246;BMP280;69558;39.208;-77.226;2023-08-17T01:36:58;100047.25;;;27.85
80246;BMP280;69558;39.208;-77.226;2023-08-17T01:39:37;100014.06;;;27.61
80246;BMP280;69558;39.208;-77.226;2023-08-17T01:42:04;100053.91;;;27.83
80246;BMP280;69558;39.208;-77.226;2023-08-17T01:44:30;100052.28;;;27.77
80246;BMP280;69558;39.208;-77.226;2023-08-17T01:46:56;100044.25;;;27.72
80246;BMP280;69558;39.208;-77.226;2023-08-17T01:49:22;100041.34;;;27.78
80246;BMP280;69558;39.208;-77.226;2023-08-17T01:51:48;100045.63;;;27.79
80246;BMP280;69558;39.208;-77.226;2023-08-17T01:54:14;100052.06;;;27.88
80246;BMP280;69558;39.208;-77.226;2023-08-17T01:56:41;100048.28;;;27.84
80246;BMP280;69558;39.208;-77.226;2023-08-17T01:59:07;100037.88;;;27.78
80246;BMP280;69558;39.208;-77.226;2023-08-17T02:01:33;100048.06;;;27.81
80246;BMP280;69558;39.208;-77.226;2023-08-17T02:03:59;100046.44;;;27.80
80246;BMP280;69558;39.208;-77.226;2023-08-17T02:06:28;100039.53;;;27.84
80246;BMP280;69558;39.208;-77.226;2023-08-17T02:08:54;100012.00;;;27.68
80246;BMP280;69558;39.208;-77.226;2023-08-17T02:11:20;100039.47;;;27.79
80246;BMP280;69558;39.208;-77.226;2023-08-17T02:13:46;100046.97;;;27.82
80246;BMP280;69558;39.208;-77.226;2023-08-17T02:16:12;100052.06;;;27.83
80246;BMP280;69558;39.208;-77.226;2023-08-17T02:18:38;100053.63;;;27.84
80246;BMP280;69558;39.208;-77.226;2023-08-17T02:21:04;100041.38;;;27.83
80246;BMP280;69558;39.208;-77.226;2023-08-17T02:23:30;100035.50;;;27.81
80246;BMP280;69558;39.208;-77.226;2023-08-17T02:25:56;100036.06;;;27.83
80246;BMP280;69558;39.208;-77.226;2023-08-17T02:28:21;100000.50;;;27.63
80246;BMP280;69558;39.208;-77.226;2023-08-17T02:30:48;100033.41;;;27.83
80246;BMP280;69558;39.208;-77.226;2023-08-17T02:33:14;100044.56;;;27.85
80246;BMP280;69558;39.208;-77.226;2023-08-17T02:35:40;100033.09;;;27.80
80246;BMP280;69558;39.208;-77.226;2023-08-17T02:38:06;100032.28;;;27.79
80246;BMP280;69558;39.208;-77.226;2023-08-17T02:40:32;100039.53;;;27.89
80246;BMP280;69558;39.208;-77.226;2023-08-17T02:42:58;100037.41;;;27.86
80246;BMP280;69558;39.208;-77.226;2023-08-17T02:45:24;100033.91;;;27.85
80246;BMP280;69558;39.208;-77.226;2023-08-17T02:47:50;100032.59;;;27.83
80246;BMP280;69558;39.208;-77.226;2023-08-17T02:50:16;100032.88;;;27.86
80246;BMP280;69558;39.208;-77.226;2023-08-17T02:52:42;100028.81;;;27.79
80246;BMP280;69558;39.208;-77.226;2023-08-17T02:55:08;100036.34;;;27.87
80246;BMP280;69558;39.208;-77.226;2023-08-17T02:57:34;100033.16;;;27.90
80246;BMP280;69558;39.208;-77.226;2023-08-17T03:00:00;100031.84;;;27.92
80246;BMP280;69558;39.208;-77.226;2023-08-17T03:02:26;100025.69;;;27.87
80246;BMP280;69558;39.208;-77.226;2023-08-17T03:04:52;100035.78;;;27.85
80246;BMP280;69558;39.208;-77.226;2023-08-17T03:07:18;100035.78;;;27.85
80246;BMP280;69558;39.208;-77.226;2023-08-17T03:09:44;100023.25;;;27.80
80246;BMP280;69558;39.208;-77.226;2023-08-17T03:12:10;100012.81;;;27.74
80246;BMP280;69558;39.208;-77.226;2023-08-17T03:14:35;100017.66;;;27.82
80246;BMP280;69558;39.208;-77.226;2023-08-17T03:17:01;100022.97;;;27.77
80246;BMP280;69558;39.208;-77.226;2023-08-17T03:19:27;100026.16;;;27.79
80246;BMP280;69558;39.208;-77.226;2023-08-17T03:21:53;100025.34;;;27.78
80246;BMP280;69558;39.208;-77.226;2023-08-17T03:24:19;100031.25;;;27.80
80246;BMP280;69558;39.208;-77.226;2023-08-17T03:26:45;100037.91;;;27.83
80246;BMP280;69558;39.208;-77.226;2023-08-17T03:29:11;100034.44;;;27.82
80246;BMP280;69558;39.208;-77.226;2023-08-17T03:31:37;100027.25;;;27.83
80246;BMP280;69558;39.208;-77.226;2023-08-17T03:34:03;100017.66;;;27.82
80246;BMP280;69558;39.208;-77.226;2023-08-17T03:36:29;100013.41;;;27.81
80246;BMP280;69558;39.208;-77.226;2023-08-17T03:38:55;100012.06;;;27.83
80246;BMP280;69558;39.208;-77.226;2023-08-17T03:41:21;100008.56;;;27.78
80246;BMP280;69558;39.208;-77.226;2023-08-17T03:43:50;100010.22;;;27.84
80246;BMP280;69558;39.208;-77.226;2023-08-17T03:46:16;100012.06;;;27.83
80246;BMP280;69558;39.208;-77.226;2023-08-17T03:48:43;100016.31;;;27.79
80246;BMP280;69558;39.208;-77.226;2023-08-17T03:51:09;100014.19;;;27.81
80246;BMP280;69558;39.208;-77.226;2023-08-17T03:53:35;100016.88;;;27.86
80246;BMP280;69558;39.208;-77.226;2023-08-17T03:56:01;100000.09;;;27.81
80246;BMP280;69558;39.208;-77.226;2023-08-17T03:58:28;99984.25;;;27.69
80246;BMP280;69558;39.208;-77.226;2023-08-17T04:00:58;100023.53;;;27.89
80246;BMP280;69558;39.208;-77.226;2023-08-17T04:03:25;100024.31;;;27.84
80246;BMP280;69558;39.208;-77.226;2023-08-17T04:05:50;100025.69;;;27.87
80246;BMP280;69558;39.208;-77.226;2023-08-17T04:08:16;100022.44;;;27.85
80246;BMP280;69558;39.208;-77.226;2023-08-17T04:10:42;100010.16;;;27.79
80246;BMP280;69558;39.208;-77.226;2023-08-17T04:13:09;100016.06;;;27.81
80246;BMP280;69558;39.208;-77.226;2023-08-17T04:15:34;100026.16;;;27.79
80246;BMP280;69558;39.208;-77.226;2023-08-17T04:18:01;100019.50;;;27.81
80246;BMP280;69558;39.208;-77.226;2023-08-17T04:20:27;100021.94;;;27.83
80246;BMP280;69558;39.208;-77.226;2023-08-17T04:22:53;100017.41;;;27.83
80246;BMP280;69558;39.208;-77.226;2023-08-17T04:25:18;100019.56;;;27.86
80246;BMP280;69558;39.208;-77.226;2023-08-17T04:27:45;100019.81;;;27.90
80246;BMP280;69558;39.208;-77.226;2023-08-17T04:30:11;100004.31;;;27.82
80246;BMP280;69558;39.208;-77.226;2023-08-17T04:32:37;100019.81;;;27.90
80246;BMP280;69558;39.208;-77.226;2023-08-17T04:35:03;100018.75;;;27.91
80246;BMP280;69558;39.208;-77.226;2023-08-17T04:37:29;100007.84;;;27.92
80246;BMP280;69558;39.208;-77.226;2023-08-17T04:39:55;100016.34;;;27.89
80246;BMP280;69558;39.208;-77.226;2023-08-17T04:42:21;100012.88;;;27.89
80246;BMP280;69558;39.208;-77.226;2023-08-17T04:44:47;99998.69;;;27.78
80246;BMP280;69558;39.208;-77.226;2023-08-17T04:47:13;100008.09;;;27.86
80246;BMP280;69558;39.208;-77.226;2023-08-17T04:49:40;100000.31;;;27.84
80246;BMP280;69558;39.208;-77.226;2023-08-17T04:52:05;99973.59;;;27.69
80246;BMP280;69558;39.208;-77.226;2023-08-17T04:54:31;99993.41;;;27.88
80246;BMP280;69558;39.208;-77.226;2023-08-17T04:56:57;99992.34;;;27.89
80246;BMP280;69558;39.208;-77.226;2023-08-17T04:59:23;99983.53;;;27.84
80246;BMP280;69558;39.208;-77.226;2023-08-17T05:01:49;99995.28;;;27.88
80246;BMP280;69558;39.208;-77.226;2023-08-17T05:04:15;99992.09;;;27.91
80246;BMP280;69558;39.208;-77.226;2023-08-17T05:06:41;99991.56;;;27.89
80246;BMP280;69558;39.208;-77.226;2023-08-17T05:09:08;99990.22;;;27.91
80246;BMP280;69558;39.208;-77.226;2023-08-17T05:11:34;99984.13;;;27.96
80246;BMP280;69558;39.208;-77.226;2023-08-17T05:14:01;99984.34;;;27.94
80246;BMP280;69558;39.208;-77.226;2023-08-17T05:16:27;99992.34;;;27.94
80246;BMP280;69558;39.208;-77.226;2023-08-17T05:18:53;99971.28;;;27.83
80246;BMP280;69558;39.208;-77.226;2023-08-17T05:21:19;99991.03;;;27.92
80246;BMP280;69558;39.208;-77.226;2023-08-17T05:23:45;99998.50;;;27.95
80246;BMP280;69558;39.208;-77.226;2023-08-17T05:26:11;99991.56;;;27.94
80246;BMP280;69558;39.208;-77.226;2023-08-17T05:28:38;100003.31;;;27.93
80246;BMP280;69558;39.208;-77.226;2023-08-17T05:31:07;99988.38;;;27.97
80246;BMP280;69558;39.208;-77.226;2023-08-17T05:33:32;99993.16;;;27.95
80246;BMP280;69558;39.208;-77.226;2023-08-17T05:35:58;99989.19;;;27.98
80246;BMP280;69558;39.208;-77.226;2023-08-17T05:38:25;99983.34;;;27.95
80246;BMP280;69558;39.208;-77.226;2023-08-17T05:40:57;99980.13;;;27.99
80246;BMP280;69558;39.208;-77.226;2023-08-17T05:43:24;99978.78;;;27.91
80246;BMP280;69558;39.208;-77.226;2023-08-17T05:45:50;99985.41;;;27.93
80246;BMP280;69558;39.208;-77.226;2023-08-17T05:48:18;99980.38;;;27.87
80246;BMP280;69558;39.208;-77.226;2023-08-17T05:50:46;99981.16;;;27.87
80246;BMP280;69558;39.208;-77.226;2023-08-17T05:53:12;100001.16;;;27.95
80246;BMP280;69558;39.208;-77.226;2023-08-17T05:55:38;100002.22;;;27.94
80246;BMP280;69558;39.208;-77.226;2023-08-17T05:58:04;99995.81;;;27.90
80246;BMP280;69558;39.208;-77.226;2023-08-17T06:00:30;99998.75;;;27.88
80246;BMP280;69558;39.208;-77.226;2023-08-17T06:02:56;99988.88;;;27.89
80246;BMP280;69558;39.208;-77.226;2023-08-17T06:05:29;99976.91;;;27.86
80246;BMP280;69558;39.208;-77.226;2023-08-17T06:07:56;99988.38;;;27.92
80246;BMP280;69558;39.208;-77.226;2023-08-17T06:10:23;99992.66;;;27.93
80246;BMP280;69558;39.208;-77.226;2023-08-17T06:12:54;99976.63;;;27.88
80246;BMP280;69558;39.208;-77.226;2023-08-17T06:15:20;99981.44;;;27.91
80246;BMP280;69558;39.208;-77.226;2023-08-17T06:17:46;99983.28;;;27.90
80246;BMP280;69558;39.208;-77.226;2023-08-17T06:20:12;99976.34;;;27.89
80246;BMP280;69558;39.208;-77.226;2023-08-17T06:22:40;99972.03;;;27.73
80246;BMP280;69558;39.208;-77.226;2023-08-17T06:25:06;99949.91;;;27.68
80246;BMP280;69558;39.208;-77.226;2023-08-17T06:27:33;99981.66;;;27.84
80246;BMP280;69558;39.208;-77.226;2023-08-17T06:30:00;99975.50;;;27.79
80246;BMP280;69558;39.208;-77.226;2023-08-17T06:32:26;99983.78;;;27.77
80246;BMP280;69558;39.208;-77.226;2023-08-17T06:34:52;99979.22;;;27.73
80246;BMP280;69558;39.208;-77.226;2023-08-17T06:37:20;99986.97;;;27.84
80246;BMP280;69558;39.208;-77.226;2023-08-17T06:39:45;99977.88;;;27.75
80246;BMP280;69558;39.208;-77.226;2023-08-17T06:42:11;99992.09;;;27.81
80246;BMP280;69558;39.208;-77.226;2023-08-17T06:44:37;99983.22;;;27.75
80246;BMP280;69558;39.208;-77.226;2023-08-17T06:47:04;99986.19;;;27.79
80246;BMP280;69558;39.208;-77.226;2023-08-17T06:49:30;99992.84;;;27.76
80246;BMP280;69558;39.208;-77.226;2023-08-17T06:51:56;99991.00;;;27.82
80246;BMP280;69558;39.208;-77.226;2023-08-17T06:54:22;99993.91;;;27.80
80246;BMP280;69558;39.208;-77.226;2023-08-17T06:56:48;99992.56;;;27.78
80246;BMP280;69558;39.208;-77.226;2023-08-17T06:59:14;99985.13;;;27.85
80246;BMP280;69558;39.208;-77.226;2023-08-17T07:01:40;99984.09;;;27.81
80246;BMP280;69558;39.208;-77.226;2023-08-17T07:04:06;99984.31;;;27.79
80246;BMP280;69558;39.208;-77.226;2023-08-17T07:06:32;99982.75;;;27.83
80246;BMP280;69558;39.208;-77.226;2023-08-17T07:08:57;99962.19;;;27.79
80246;BMP280;69558;39.208;-77.226;2023-08-17T07:11:25;99952.56;;;27.73
80246;BMP280;69558;39.208;-77.226;2023-08-17T07:13:52;99967.25;;;27.80
80246;BMP280;69558;39.208;-77.226;2023-08-17T07:16:19;99978.22;;;27.84
80246;BMP280;69558;39.208;-77.226;2023-08-17T07:18:45;99979.78;;;27.85
80246;BMP280;69558;39.208;-77.226;2023-08-17T07:21:11;99981.94;;;27.88
80246;BMP280;69558;39.208;-77.226;2023-08-17T07:23:37;99958.97;;;27.72
80246;BMP280;69558;39.208;-77.226;2023-08-17T07:26:03;99975.81;;;27.82
80246;BMP280;69558;39.208;-77.226;2023-08-17T07:28:29;99978.75;;;27.86
80246;BMP280;69558;39.208;-77.226;2023-08-17T07:30:55;99976.31;;;27.84
80246;BMP280;69558;39.208;-77.226;2023-08-17T07:33:21;99978.22;;;27.84
80246;BMP280;69558;39.208;-77.226;2023-08-17T07:35:48;99982.75;;;27.83
80246;BMP280;69558;39.208;-77.226;2023-08-17T07:38:13;99968.88;;;27.81
80246;BMP280;69558;39.208;-77.226;2023-08-17T07:40:40;99979.78;;;27.85
80246;BMP280;69558;39.208;-77.226;2023-08-17T07:43:08;99984.09;;;27.81
80246;BMP280;69558;39.208;-77.226;2023-08-17T07:45:34;99951.22;;;27.75
80246;BMP280;69558;39.208;-77.226;2023-08-17T07:48:00;99978.47;;;27.82
80246;BMP280;69558;39.208;-77.226;2023-08-17T07:50:26;99962.69;;;27.76
80246;BMP280;69558;39.208;-77.226;2023-08-17T07:52:52;99966.47;;;27.80
80246;BMP280;69558;39.208;-77.226;2023-08-17T07:55:18;99972.63;;;27.90
80246;BMP280;69558;39.208;-77.226;2023-08-17T07:57:44;99962.78;;;27.86
80246;BMP280;69558;39.208;-77.226;2023-08-17T08:00:10;99964.09;;;27.83
80246;BMP280;69558;39.208;-77.226;2023-08-17T08:02:36;99964.88;;;27.84
80246;BMP280;69558;39.208;-77.226;2023-08-17T08:05:03;99941.63;;;27.69
80246;BMP280;69558;39.208;-77.226;2023-08-17T08:07:29;99961.38;;;27.78
80246;BMP280;69558;39.208;-77.226;2023-08-17T08:09:55;99922.91;;;27.54
80246;BMP280;69558;39.208;-77.226;2023-08-17T08:12:21;99943.81;;;27.77
80246;BMP280;69558;39.208;-77.226;2023-08-17T08:14:47;99920.81;;;27.66
80246;BMP280;69558;39.208;-77.226;2023-08-17T08:17:13;99926.72;;;27.78
80246;BMP280;69558;39.208;-77.226;2023-08-17T08:19:40;99931.28;;;27.83
80246;BMP280;69558;39.208;-77.226;2023-08-17T08:22:05;99935.81;;;27.82
80246;BMP280;69558;39.208;-77.226;2023-08-17T08:24:31;99898.44;;;27.62
80246;BMP280;69558;39.208;-77.226;2023-08-17T08:27:00;99920.63;;;27.83
80246;BMP280;69558;39.208;-77.226;2023-08-17T08:29:27;99925.38;;;27.76
80246;BMP280;69558;39.208;-77.226;2023-08-17T08:31:53;99926.22;;;27.76
80246;BMP280;69558;39.208;-77.226;2023-08-17T08:34:19;99919.25;;;27.70
80246;BMP280;69558;39.208;-77.226;2023-08-17T08:36:45;99932.59;;;27.80
80246;BMP280;69558;39.208;-77.226;2023-08-17T08:39:11;99932.06;;;27.78
80246;BMP280;69558;39.208;-77.226;2023-08-17T08:41:39;99931.78;;;27.75
80246;BMP280;69558;39.208;-77.226;2023-08-17T08:44:05;99932.06;;;27.73
80246;BMP280;69558;39.208;-77.226;2023-08-17T08:46:33;99935.28;;;27.80
80246;BMP280;69558;39.208;-77.226;2023-08-17T08:49:00;99938.78;;;27.81
80246;BMP280;69558;39.208;-77.226;2023-08-17T08:51:28;99930.50;;;27.82
80246;BMP280;69558;39.208;-77.226;2023-08-17T08:54:01;99934.22;;;27.76
80246;BMP280;69558;39.208;-77.226;2023-08-17T08:56:32;99925.38;;;27.76
80246;BMP280;69558;39.208;-77.226;2023-08-17T08:59:02;99926.72;;;27.73
80246;BMP280;69558;39.208;-77.226;2023-08-17T09:01:30;99898.94;;;27.59
80246;BMP280;69558;39.208;-77.226;2023-08-17T09:04:00;99932.84;;;27.74
80246;BMP280;69558;39.208;-77.226;2023-08-17T09:06:27;99932.31;;;27.72
80246;BMP280;69558;39.208;-77.226;2023-08-17T09:08:55;99937.38;;;27.73
80246;BMP280;69558;39.208;-77.226;2023-08-17T09:11:22;99925.13;;;27.67
80246;BMP280;69558;39.208;-77.226;2023-08-17T09:13:48;99938.47;;;27.77
80246;BMP280;69558;39.208;-77.226;2023-08-17T09:16:14;99935.78;;;27.72
80246;BMP280;69558;39.208;-77.226;2023-08-17T09:18:40;99945.91;;;27.75
80246;BMP280;69558;39.208;-77.226;2023-08-17T09:21:06;99943.78;;;27.72
80246;BMP280;69558;39.208;-77.226;2023-08-17T09:23:32;99942.44;;;27.75
80246;BMP280;69558;39.208;-77.226;2023-08-17T09:26:08;99941.44;;;27.81
80246;BMP280;69558;39.208;-77.226;2023-08-17T09:28:38;99936.81;;;27.66
80246;BMP280;69558;39.208;-77.226;2023-08-17T09:31:05;99934.97;;;27.62
80246;BMP280;69558;39.208;-77.226;2023-08-17T09:33:32;99934.69;;;27.63
80246;BMP280;69558;39.208;-77.226;2023-08-17T09:35:59;99948.56;;;27.70
80246;BMP280;69558;39.208;-77.226;2023-08-17T09:38:26;99958.72;;;27.73
80246;BMP280;69558;39.208;-77.226;2023-08-17T09:40:53;99929.06;;;27.54
80246;BMP280;69558;39.208;-77.226;2023-08-17T09:43:20;99956.03;;;27.73
80246;BMP280;69558;39.208;-77.226;2023-08-17T09:45:50;99953.38;;;27.73
80246;BMP280;69558;39.208;-77.226;2023-08-17T09:48:17;99946.44;;;27.67
80246;BMP280;69558;39.208;-77.226;2023-08-17T09:50:44;99957.66;;;27.74
80246;BMP280;69558;39.208;-77.226;2023-08-17T09:53:14;99950.72;;;27.73
80246;BMP280;69558;39.208;-77.226;2023-08-17T09:55:44;99952.00;;;27.66
80246;BMP280;69558;39.208;-77.226;2023-08-17T09:58:12;99957.91;;;27.78
80246;BMP280;69558;39.208;-77.226;2023-08-17T10:00:48;99964.03;;;27.73
80246;BMP280;69558;39.208;-77.226;2023-08-17T10:03:15;99952.88;;;27.71
80246;BMP280;69558;39.208;-77.226;2023-08-17T10:05:55;99959.78;;;27.72
80246;BMP280;69558;39.208;-77.226;2023-08-17T10:08:25;99959.78;;;27.72
80246;BMP280;69558;39.208;-77.226;2023-08-17T10:10:54;99951.78;;;27.67
80246;BMP280;69558;39.208;-77.226;2023-08-17T10:13:35;99964.56;;;27.70
80246;BMP280;69558;39.208;-77.226;2023-08-17T10:16:16;99937.31;;;27.53
80246;BMP280;69558;39.208;-77.226;2023-08-17T10:21:34;99963.22;;;27.68
80246;BMP280;69558;39.208;-77.226;2023-08-17T10:24:02;99967.22;;;27.65
80246;BMP280;69558;39.208;-77.226;2023-08-17T10:26:29;99969.63;;;27.67
80246;BMP280;69558;39.208;-77.226;2023-08-17T10:28:56;99977.34;;;27.68
80246;BMP280;69558;39.208;-77.226;2023-08-17T10:31:25;99955.75;;;27.65
80246;BMP280;69558;39.208;-77.226;2023-08-17T10:33:51;99969.88;;;27.70
80246;BMP280;69558;39.208;-77.226;2023-08-17T10:36:17;99985.38;;;27.73
80246;BMP280;69558;39.208;-77.226;2023-08-17T10:38:44;99979.50;;;27.71
80246;BMP280;69558;39.208;-77.226;2023-08-17T10:41:14;99977.38;;;27.73
80246;BMP280;69558;39.208;-77.226;2023-08-17T10:44:13;99963.69;;;27.59
80246;BMP280;69558;39.208;-77.226;2023-08-17T10:46:39;99978.41;;;27.67
80246;BMP280;69558;39.208;-77.226;2023-08-17T10:49:31;99961.03;;;27.54
80246;BMP280;69558;39.208;-77.226;2023-08-17T10:52:03;99977.03;;;27.59
80246;BMP280;69558;39.208;-77.226;2023-08-17T10:54:50;99986.13;;;27.64
80246;BMP280;69558;39.208;-77.226;2023-08-17T10:57:31;99956.44;;;27.45
80246;BMP280;69558;39.208;-77.226;2023-08-17T11:00:24;99983.69;;;27.57
80246;BMP280;69558;39.208;-77.226;2023-08-17T11:03:00;99999.16;;;27.60
80246;BMP280;69558;39.208;-77.226;2023-08-17T11:05:36;100007.19;;;27.65
80246;BMP280;69558;39.208;-77.226;2023-08-17T11:08:05;100005.56;;;27.64
80246;BMP280;69558;39.208;-77.226;2023-08-17T11:10:32;99995.69;;;27.59
80246;BMP280;69558;39.208;-77.226;2023-08-17T11:12:59;100006.69;;;27.68
80246;BMP280;69558;39.208;-77.226;2023-08-17T11:15:26;100008.75;;;27.66
80246;BMP280;69558;39.208;-77.226;2023-08-17T11:18:00;100012.75;;;27.64
80246;BMP280;69558;39.208;-77.226;2023-08-17T11:20:26;100011.72;;;27.65
80246;BMP280;69558;39.208;-77.226;2023-08-17T11:22:52;100023.19;;;27.65
80246;BMP280;69558;39.208;-77.226;2023-08-17T11:25:18;100007.44;;;27.58
80246;BMP280;69558;39.208;-77.226;2023-08-17T11:27:44;100013.56;;;27.64
80246;BMP280;69558;39.208;-77.226;2023-08-17T11:30:11;100013.28;;;27.66
80246;BMP280;69558;39.208;-77.226;2023-08-17T11:32:38;100020.00;;;27.68
80246;BMP280;69558;39.208;-77.226;2023-08-17T11:35:05;100019.19;;;27.68
80246;BMP280;69558;39.208;-77.226;2023-08-17T11:37:30;100013.06;;;27.67
80246;BMP280;69558;39.208;-77.226;2023-08-17T11:39:56;100016.19;;;27.59
80246;BMP280;69558;39.208;-77.226;2023-08-17T11:42:22;100011.41;;;27.61
80246;BMP280;69558;39.208;-77.226;2023-08-17T11:44:48;100021.00;;;27.62
80246;BMP280;69558;39.208;-77.226;2023-08-17T11:47:14;100025.28;;;27.63
80246;BMP280;69558;39.208;-77.226;2023-08-17T11:49:40;100014.34;;;27.59
80246;BMP280;69558;39.208;-77.226;2023-08-17T11:52:09;100020.75;;;27.64
80246;BMP280;69558;39.208;-77.226;2023-08-17T11:54:40;100012.75;;;27.64
80246;BMP280;69558;39.208;-77.226;2023-08-17T11:57:07;100002.34;;;27.57
80246;BMP280;69558;39.208;-77.226;2023-08-17T11:59:33;100003.66;;;27.59
80246;BMP280;69558;39.208;-77.226;2023-08-17T12:02:01;100011.97;;;27.63
80246;BMP280;69558;39.208;-77.226;2023-08-17T12:04:26;99994.09;;;27.58
80246;BMP280;69558;39.208;-77.226;2023-08-17T12:06:52;100014.06;;;27.61
80246;BMP280;69558;39.208;-77.226;2023-08-17T12:09:18;100019.41;;;27.66
80246;BMP280;69558;39.208;-77.226;2023-08-17T12:11:45;99984.13;;;27.39
80246;BMP280;69558;39.208;-77.226;2023-08-17T12:14:12;100013.28;;;27.61
80246;BMP280;69558;39.208;-77.226;2023-08-17T12:16:50;100005.53;;;27.54
80246;BMP280;69558;39.208;-77.226;2023-08-17T12:19:16;99998.56;;;27.48
80246;BMP280;69558;39.208;-77.226;2023-08-17T12:21:43;99992.34;;;27.37
80246;BMP280;69558;39.208;-77.226;2023-08-17T12:24:09;100014.06;;;27.61
80246;BMP280;69558;39.208;-77.226;2023-08-17T12:26:48;100001.50;;;27.56
80246;BMP280;69558;39.208;-77.226;2023-08-17T12:29:14;100015.44;;;27.64
80246;BMP280;69558;39.208;-77.226;2023-08-17T12:31:40;99995.66;;;27.54
80246;BMP280;69558;39.208;-77.226;2023-08-17T12:34:06;99996.19;;;27.56
80246;BMP280;69558;39.208;-77.226;2023-08-17T12:36:32;100018.09;;;27.64
80246;BMP280;69558;39.208;-77.226;2023-08-17T12:38:58;100008.75;;;27.61
80246;BMP280;69558;39.208;-77.226;2023-08-17T12:41:24;100001.81;;;27.60
80246;BMP280;69558;39.208;-77.226;2023-08-17T12:43:50;99977.19;;;27.38
80246;BMP280;69558;39.208;-77.226;2023-08-17T12:46:19;100002.59;;;27.55
80246;BMP280;69558;39.208;-77.226;2023-08-17T12:48:45;99999.94;;;27.61
80246;BMP280;69558;39.208;-77.226;2023-08-17T12:51:12;99994.09;;;27.58
80246;BMP280;69558;39.208;-77.226;2023-08-17T12:53:38;99992.19;;;27.54
80246;BMP280;69558;39.208;-77.226;2023-08-17T12:56:04;99992.50;;;27.57
80246;BMP280;69558;39.208;-77.226;2023-08-17T12:58:30;99988.25;;;27.62
80246;BMP280;69558;39.208;-77.226;2023-08-17T13:00:56;99989.28;;;27.61
80246;BMP280;69558;39.208;-77.226;2023-08-17T13:03:22;99977.31;;;27.58
80246;BMP280;69558;39.208;-77.226;2023-08-17T13:05:48;99989.84;;;27.63
80246;BMP280;69558;39.208;-77.226;2023-08-17T13:08:14;99978.88;;;27.54
80246;BMP280;69558;39.208;-77.226;2023-08-17T13:10:41;99983.69;;;27.62
80246;BMP280;69558;39.208;-77.226;2023-08-17T13:13:07;99985.03;;;27.59
80246;BMP280;69558;39.208;-77.226;2023-08-17T13:15:33;99985.03;;;27.59
80246;BMP280;69558;39.208;-77.226;2023-08-17T13:17:59;99979.97;;;27.58
80246;BMP280;69558;39.208;-77.226;2023-08-17T13:20:26;99946.28;;;27.42
80246;BMP280;69558;39.208;-77.226;2023-08-17T13:22:52;99970.13;;;27.64
80246;BMP280;69558;39.208;-77.226;2023-08-17T13:25:18;99976.78;;;27.66
80246;BMP280;69558;39.208;-77.226;2023-08-17T13:27:45;99974.66;;;27.63
80246;BMP280;69558;39.208;-77.226;2023-08-17T13:30:12;99942.06;;;27.46
80246;BMP280;69558;39.208;-77.226;2023-08-17T13:32:38;99980.78;;;27.64
80246;BMP280;69558;39.208;-77.226;2023-08-17T13:35:04;99967.72;;;27.62
80246;BMP280;69558;39.208;-77.226;2023-08-17T13:37:30;99936.75;;;27.46
80246;BMP280;69558;39.208;-77.226;2023-08-17T13:39:56;99960.22;;;27.59
80246;BMP280;69558;39.208;-77.226;2023-08-17T13:42:24;99961.84;;;27.60
80246;BMP280;69558;39.208;-77.226;2023-08-17T13:44:50;99941.56;;;27.49